Last 7 Days

Pierce College

10 Minute Data | America/Los_Angeles
as of 8/8/22 3:44 PM PDT
Date & Time Temp Max (°F) Temp Min (°F) RH (%) Dew Pt (°F) Latest Rain (In) Soil Temp (°F) Soil Moist (%) Pressure (mb) Wind Spd (mph) Wind Dir (°) Wind Gust (mph) Wind Gst Dir (°) Leaf Wet Raw (mV) Net Radiation (W/m²) Evap Pan Wind Spd (mph) Evap Pan WindRun (miles) Evap Pan H2O Temp (°F) Evap Pan Level (In) Seasonal Rainfall (In)
8/8/22 - 1540 97.1 96.0 25 55.4 0.00 86.5 27.1 1,012.3 3.6 S | 187 8.6 SSW | 204 263 435 2.3 5.6 115.3 3.8 0.00
8/8/22 - 1530 97.4 96.1 26 56.2 0.00 86.4 27.2 1,012.4 3.9 S | 172 8.1 SE | 140 262 452 2.3 5.2 114.9 3.8 0.00
8/8/22 - 1520 99.3 96.1 26 57.5 0.00 86.5 27.1 1,012.4 4.3 ESE | 102 8.3 SSW | 197 262 468 1.8 4.8 113.6 3.8 0.00
8/8/22 - 1510 99.6 98.1 25 56.4 0.00 86.3 27.1 1,012.5 2.9 ENE | 59 5.9 NE | 55 263 478 1.1 4.5 116.4 3.8 0.00
8/8/22 - 1500 99.6 98.9 23 55.1 0.00 86.4 27.1 1,012.7 2.5 ENE | 70 5.0 ENE | 62 263 488 1.1 4.3 117.5 3.8 0.00
8/8/22 - 1450 99.7 99.2 22 54.3 0.00 86.3 27.1 1,012.8 2.6 NE | 52 5.5 ESE | 103 262 503 0.9 4.1 119.2 3.8 0.00
8/8/22 - 1440 99.5 98.9 22 54.4 0.00 86.2 27.1 1,013.0 2.6 NE | 44 4.6 NNE | 32 262 513 0.8 4.0 119.2 3.8 0.00
8/8/22 - 1430 99.6 98.7 23 55.3 0.00 86.3 27.1 1,013.1 2.4 ENE | 71 5.3 ENE | 58 262 528 0.8 3.8 120.9 3.8 0.00
8/8/22 - 1420 99.4 98.7 24 56.3 0.00 86.2 27.1 1,013.2 2.7 NE | 49 4.9 NE | 52 262 536 0.8 3.7 124.4 3.8 0.00
8/8/22 - 1410 99.4 97.2 24 56.1 0.00 86.2 27.1 1,013.3 1.8 ENE | 61 4.2 NE | 45 262 546 0.7 3.6 128.5 3.8 0.00
8/8/22 - 1400 98.7 96.3 27 58.3 0.00 86.1 27.1 1,013.4 2.2 ESE | 109 6.1 ENE | 63 262 559 1.1 3.5 130.1 3.8 0.00
8/8/22 - 1350 98.3 96.3 27 57.8 0.00 86.2 27.1 1,013.5 2.0 ENE | 70 4.7 ESE | 113 262 562 1.0 3.3 132.1 3.8 0.00
8/8/22 - 1340 98.1 96.9 26 57.2 0.00 86.0 27.1 1,013.7 2.7 NE | 34 4.8 ENE | 60 262 567 0.7 3.1 131.3 3.8 0.00
8/8/22 - 1330 97.1 95.4 27 56.8 0.00 86.1 27.0 1,013.9 2.8 NE | 55 5.2 E | 101 262 573 1.0 3.0 131.6 3.8 0.00
8/8/22 - 1320 96.3 95.0 27 56.6 0.00 86.1 27.0 1,014.0 2.7 ENE | 66 5.7 E | 85 262 582 0.9 2.8 131.9 3.8 0.00
8/8/22 - 1310 97.3 94.9 26 56.3 0.00 85.9 27.0 1,014.1 2.8 ESE | 105 5.8 ENE | 71 262 582 1.2 2.7 134.1 3.8 0.00
8/8/22 - 1300 97.2 96.1 26 56.6 0.00 86.1 27.0 1,014.2 2.2 NNE | 28 4.1 NE | 42 262 578 0.5 2.5 135.3 3.8 0.00
8/8/22 - 1250 96.6 96.1 26 55.9 0.00 86.1 27.0 1,014.3 2.3 NE | 37 4.6 N | 1 262 580 0.7 2.4 134.7 3.8 0.00
8/8/22 - 1240 96.1 94.8 26 55.6 0.00 85.9 27.0 1,014.3 2.0 NE | 52 5.4 NE | 55 262 580 1.0 2.3 131.9 3.8 0.00
8/8/22 - 1230 95.7 94.1 26 54.7 0.00 85.9 27.0 1,014.4 2.1 NE | 37 4.8 NE | 55 262 577 0.7 2.1 128.5 3.8 0.00
8/8/22 - 1220 94.5 93.5 27 54.8 0.00 86.1 27.0 1,014.6 2.6 NE | 47 4.8 E | 86 262 574 0.9 2.0 122.4 3.8 0.00
8/8/22 - 1210 94.3 93.3 27 54.9 0.00 86.0 27.0 1,014.7 2.6 NE | 40 5.1 N | 354 261 566 0.7 1.8 117.0 3.8 0.00
8/8/22 - 1200 93.8 93.0 29 56.0 0.00 86.0 27.0 1,014.7 2.3 NE | 44 6.3 NNW | 334 262 561 0.7 1.7 113.1 3.8 0.00
8/8/22 - 1150 93.8 92.8 30 57.0 0.00 86.1 27.0 1,014.8 2.2 NNE | 29 5.5 NNE | 25 262 552 0.6 1.6 109.0 3.8 0.00
8/8/22 - 1140 93.6 92.8 30 56.8 0.00 86.0 27.0 1,014.8 2.5 NE | 36 5.1 N | 354 262 545 0.8 1.5 106.8 3.8 0.00
8/8/22 - 1130 93.1 90.9 30 56.2 0.00 86.1 27.0 1,014.9 1.8 NNE | 29 3.8 E | 87 262 536 0.8 1.4 105.4 3.8 0.00
8/8/22 - 1120 92.3 91.0 29 55.0 0.00 86.1 27.0 1,014.9 2.4 NNE | 25 6.1 NNE | 28 262 526 0.6 1.2 118.6 3.8 0.00
8/8/22 - 1110 91.9 90.8 29 54.5 0.00 86.0 27.0 1,015.0 1.8 NNE | 29 3.5 ENE | 57 262 515 0.5 1.1 131.8 3.8 0.00
8/8/22 - 1100 91.3 90.6 29 54.4 0.00 86.1 27.0 1,015.0 2.1 NE | 37 3.9 NNE | 22 262 499 0.4 1.1 132.5 3.8 0.00
8/8/22 - 1050 90.8 88.9 30 54.0 0.00 86.1 27.0 1,015.0 1.6 NE | 46 3.6 NE | 55 262 490 0.7 1.0 132.0 3.8 0.00
8/8/22 - 1040 90.0 89.1 29 53.4 0.00 86.1 27.0 1,015.0 1.7 NE | 56 3.5 N | 4 262 476 0.4 0.9 130.6 3.8 0.00
8/8/22 - 1030 89.2 87.6 31 53.6 0.00 86.2 27.0 1,015.1 1.3 NE | 47 3.1 N | 3 262 461 0.4 0.8 126.9 3.8 0.00
8/8/22 - 1020 87.8 86.6 31 53.2 0.00 86.2 27.0 1,015.1 1.5 NE | 36 3.1 NE | 35 262 444 0.3 0.7 124.4 3.8 0.00
8/8/22 - 1010 87.0 85.9 32 53.6 0.00 86.2 27.0 1,015.1 1.3 NE | 39 2.6 NNE | 21 262 425 0.6 0.7 123.3 3.8 0.00
8/8/22 - 1000 86.9 85.6 34 54.4 0.00 86.3 27.1 1,015.1 0.7 N | 10 3.3 NNW | 335 263 405 0.4 0.6 123.8 3.8 0.00
8/8/22 - 0950 85.6 84.1 36 54.6 0.00 86.3 27.1 1,015.2 1.1 N | 7 2.7 NNE | 28 263 385 0.7 0.5 120.0 3.8 0.00
8/8/22 - 0940 84.5 82.6 38 55.3 0.00 86.4 27.1 1,015.2 0.8 NE | 39 3.5 NNW | 340 263 366 0.5 0.4 117.0 3.8 0.00
8/8/22 - 0930 83.3 82.3 39 55.6 0.00 86.4 27.1 1,015.2 1.1 NNE | 19 3.7 NNE | 31 264 344 0.3 0.3 115.3 3.8 0.00
8/8/22 - 0920 83.5 81.8 40 56.0 0.00 86.5 27.1 1,015.3 0.5 NE | 44 2.3 NE | 35 264 322 0.2 0.3 113.1 3.8 0.00
8/8/22 - 0910 81.8 79.4 43 56.2 0.00 86.6 27.1 1,015.3 0.3 WNW | 303 2.1 WNW | 296 264 302 0.7 0.2 107.8 3.8 0.00
8/8/22 - 0900 79.4 77.5 46 56.0 0.00 86.5 27.2 1,015.4 0.9 NE | 45 2.8 E | 89 264 284 0.3 0.1 101.2 3.8 0.00
8/8/22 - 0850 77.5 76.6 48 55.8 0.00 86.6 27.2 1,015.4 0.8 NNE | 19 2.0 NNE | 23 264 274 0.1 0.1 91.9 3.8 0.00
8/8/22 - 0840 76.6 75.8 49 55.7 0.00 86.6 27.2 1,015.3 1.0 NE | 34 2.5 NE | 42 266 191 0.2 0.1 79.4 3.8 0.00
8/8/22 - 0830 75.9 75.3 50 55.7 0.00 86.7 27.2 1,015.2 0.8 NNE | 19 2.7 NNE | 16 266 9 0.0 0.0 73.1 3.8 0.00
8/8/22 - 0820 75.4 74.8 51 55.7 0.00 86.6 27.2 1,015.1 0.2 NNE | 25 1.4 NE | 40 266 -16 0.0 0.0 72.4 3.8 0.00
8/8/22 - 0810 75.0 74.4 52 55.9 0.00 86.7 27.2 1,015.1 0.6 NNE | 31 2.2 NE | 37 266 -3 0.0 0.0 71.9 3.8 0.00
8/8/22 - 0800 74.5 73.7 54 56.4 0.00 86.7 27.2 1,015.2 0.4 ESE | 120 1.6 ESE | 121 266 24 0.2 0.0 70.6 3.8 0.00
8/8/22 - 0750 73.8 73.0 55 56.3 0.00 86.9 27.2 1,015.0 0.2 ESE | 122 1.2 E | 85 266 0 0.1 0.0 68.6 3.8 0.00
8/8/22 - 0740 73.0 72.0 54 55.1 0.00 86.8 27.3 1,015.0 0.1 SE | 140 0.6 ESE | 111 267 -23 0.0 0.0 66.8 3.8 0.00
8/8/22 - 0730 72.0 70.9 55 54.6 0.00 86.8 27.2 1,014.9 0.1 SE | 138 0.7 SE | 129 267 -25 0.0 0.0 65.4 3.8 0.00
8/8/22 - 0720 71.1 69.7 57 54.7 0.00 86.8 27.3 1,015.0 0.0 N | 0 0.0 SSW | 193 267 -24 0.0 0.0 64.4 3.8 0.00
8/8/22 - 0710 69.8 68.7 60 54.7 0.00 86.9 27.3 1,015.0 0.0 N | 0 0.0 SW | 221 267 -25 0.0 0.0 63.3 3.8 0.00
8/8/22 - 0700 68.7 67.4 63 54.9 0.00 86.9 27.3 1,014.9 0.0 N | 0 0.0 SSE | 161 267 -29 0.0 0.0 62.2 3.8 0.00
8/8/22 - 0650 67.5 67.1 64 54.7 0.00 86.9 27.3 1,015.0 0.1 SSE | 151 1.0 SSE | 151 268 -32 0.0 0.0 61.5 3.8 0.00
8/8/22 - 0640 67.3 66.3 64 54.3 0.00 87.0 27.3 1,015.0 0.3 S | 188 1.2 SSW | 198 268 -35 0.0 0.0 60.8 3.8 0.00
8/8/22 - 0630 66.5 66.2 66 54.5 0.00 86.9 27.3 1,014.9 0.3 SW | 220 0.9 SW | 216 268 -39 0.0 0.0 60.6 3.8 0.00
8/8/22 - 0620 66.5 66.0 65 54.0 0.00 87.0 27.3 1,014.8 0.0 N | 0 0.0 SE | 143 268 -44 0.0 0.0 60.5 3.8 0.00
8/8/22 - 0610 67.3 66.2 63 53.9 0.00 87.0 27.3 1,014.6 0.3 SSE | 149 1.2 SSE | 147 268 -47 0.0 0.0 60.4 3.8 0.00
8/8/22 - 0600 67.3 67.1 63 54.1 0.00 87.1 27.3 1,014.5 0.1 SE | 136 0.7 SE | 142 268 -49 0.0 0.0 60.7 3.8 0.00
8/8/22 - 0550 67.1 66.8 63 54.0 0.00 87.0 27.3 1,014.4 0.1 S | 185 0.8 S | 178 268 -48 0.0 0.0 60.9 3.8 0.00
8/8/22 - 0540 67.1 66.6 63 53.8 0.00 87.0 27.3 1,014.3 0.0 SE | 144 0.6 SE | 144 267 -49 0.0 0.0 60.9 3.8 0.00
8/8/22 - 0530 67.6 66.9 62 54.0 0.00 88.1 27.3 1,014.1 0.1 SSE | 148 0.6 S | 185 268 -50 0.0 0.0 61.4 3.8 0.00
8/8/22 - 0520 67.9 67.4 62 54.3 0.00 88.1 27.3 1,014.1 0.3 SSE | 158 0.9 SSE | 160 268 -50 0.0 0.0 61.4 3.8 0.00
8/8/22 - 0510 67.9 67.6 62 54.4 0.00 88.0 27.3 1,013.9 0.0 SSE | 159 0.6 SSE | 160 268 -50 0.0 0.0 61.8 3.8 0.00
8/8/22 - 0500 68.2 67.7 61 54.0 0.00 88.2 27.3 1,013.8 0.2 SE | 141 0.7 SE | 144 267 -51 0.0 0.0 62.0 3.8 0.00
8/8/22 - 0450 68.2 67.7 60 53.9 0.00 88.1 27.3 1,013.8 0.2 S | 185 1.1 S | 191 267 -50 0.0 0.0 62.4 3.8 0.00
8/8/22 - 0440 68.2 67.8 60 53.8 0.00 88.1 27.3 1,013.9 0.3 SSE | 157 0.9 SSE | 148 267 -51 0.0 0.0 62.7 3.8 0.00
8/8/22 - 0430 68.3 67.8 59 53.4 0.00 88.0 27.4 1,013.8 0.7 SSE | 164 1.5 SE | 143 267 -50 0.0 0.0 62.9 3.8 0.00
8/8/22 - 0420 68.8 68.0 59 53.5 0.00 87.8 27.3 1,013.8 0.8 SE | 146 1.8 SE | 144 267 -52 0.0 0.0 62.9 3.8 0.00
8/8/22 - 0410 69.0 68.5 58 53.3 0.00 88.0 27.4 1,013.7 0.3 SSE | 148 1.5 SE | 145 267 -51 0.0 0.0 63.0 3.8 0.00
8/8/22 - 0400 69.3 68.8 58 53.6 0.00 87.9 27.4 1,013.8 0.3 SSE | 168 0.9 SSW | 193 267 -50 0.0 0.0 63.0 3.8 0.00
8/8/22 - 0350 69.0 68.7 59 53.9 0.00 87.9 27.4 1,013.9 0.3 S | 177 0.8 SSE | 160 267 -51 0.0 0.0 63.0 3.8 0.00
8/8/22 - 0340 69.4 68.7 58 53.4 0.00 87.7 27.4 1,013.9 0.3 SE | 130 2.0 SE | 142 267 -52 0.0 0.0 62.9 3.8 0.00
8/8/22 - 0330 69.5 69.2 57 53.6 0.00 87.8 27.4 1,013.8 0.3 SSE | 162 1.4 SE | 140 267 -50 0.0 0.0 62.8 3.8 0.00
8/8/22 - 0320 69.6 69.2 57 53.5 0.00 87.7 27.4 1,013.8 0.0 SSE | 168 0.5 SSE | 166 266 -51 0.0 0.0 63.0 3.8 0.00
8/8/22 - 0310 70.0 69.4 55 53.0 0.00 87.7 27.4 1,013.9 0.1 SSE | 151 0.8 SSE | 154 266 -52 0.0 0.0 63.2 3.8 0.00
8/8/22 - 0300 69.9 69.6 56 53.3 0.00 87.6 27.4 1,013.9 0.5 S | 190 1.0 S | 176 266 -50 0.0 0.0 63.5 3.8 0.00
8/8/22 - 0250 70.1 69.6 56 53.4 0.00 87.7 27.4 1,013.9 0.0 N | 0 0.0 SE | 141 266 -52 0.0 0.0 64.1 3.8 0.00
8/8/22 - 0240 70.6 69.9 54 53.1 0.00 87.5 27.4 1,013.8 0.1 SSE | 151 0.9 SSE | 152 266 -54 0.0 0.0 64.4 3.8 0.00
8/8/22 - 0230 70.9 70.2 54 53.1 0.00 87.6 27.4 1,013.8 0.3 SSE | 168 0.9 S | 178 266 -54 0.0 0.0 64.7 3.8 0.00
8/8/22 - 0220 71.4 70.9 53 53.4 0.00 87.5 27.4 1,013.9 0.1 S | 176 0.9 SSE | 161 266 -52 0.0 0.0 65.1 3.8 0.00
8/8/22 - 0210 71.7 71.2 53 53.3 0.00 87.6 27.4 1,013.9 0.3 SSE | 168 1.0 SSE | 158 266 -50 0.0 0.0 65.2 3.8 0.00
8/8/22 - 0200 72.1 71.5 51 53.0 0.00 87.6 27.4 1,013.9 0.4 S | 179 1.3 S | 178 266 -50 0.0 0.0 65.3 3.8 0.00
8/8/22 - 0150 72.6 72.0 51 53.4 0.00 87.6 27.4 1,014.0 0.0 S | 176 0.4 S | 171 266 -50 0.0 0.0 65.4 3.8 0.00
8/8/22 - 0140 72.9 72.4 51 53.2 0.00 87.6 27.4 1,014.1 0.1 S | 190 0.7 S | 188 266 -49 0.0 0.0 65.3 3.8 0.00
8/8/22 - 0130 73.1 72.6 50 53.3 0.00 87.4 27.4 1,014.2 0.0 S | 189 0.3 S | 169 266 -51 0.0 0.0 65.4 3.8 0.00
8/8/22 - 0120 73.5 72.6 50 52.9 0.00 87.5 27.4 1,014.3 0.1 S | 171 0.6 S | 175 266 -55 0.0 0.0 65.7 3.8 0.00
8/8/22 - 0110 73.5 73.1 49 52.8 0.00 87.5 27.4 1,014.2 0.1 S | 174 0.6 S | 177 266 -55 0.0 0.0 66.3 3.8 0.00
8/8/22 - 0100 73.6 73.2 48 52.5 0.00 87.5 27.4 1,014.3 0.0 N | 0 0.0 SSE | 162 266 -56 0.0 11.6 66.8 3.8 0.00
8/8/22 - 0050 74.5 73.2 47 52.2 0.00 87.8 27.4 1,014.4 0.5 SE | 139 1.5 SE | 143 266 -56 0.0 11.6 67.2 3.8 0.00
8/8/22 - 0040 75.3 74.4 46 52.6 0.00 87.4 27.4 1,014.4 0.0 N | 0 0.0 SSE | 159 266 -55 0.0 11.6 67.4 3.8 0.00
8/8/22 - 0030 75.9 75.0 45 52.7 0.00 87.2 27.4 1,014.4 0.1 S | 170 0.9 S | 182 266 -56 0.0 11.6 67.9 3.8 0.00
8/8/22 - 0020 76.0 75.8 44 52.6 0.00 87.4 27.4 1,014.4 0.3 ESE | 114 1.8 ESE | 112 266 -58 0.0 11.6 68.0 3.8 0.00
8/8/22 - 0010 75.9 75.3 45 52.7 0.00 87.3 27.4 1,014.5 0.8 ESE | 120 1.6 SE | 126 266 -59 0.0 11.6 67.7 3.8 0.00
8/8/22 - 0000 75.5 74.8 46 52.7 0.00 87.3 27.4 1,014.6 0.3 SE | 139 1.9 ESE | 109 266 -58 0.0 11.6 67.6 3.8 0.00
8/7/22 - 2350 75.5 74.8 45 52.7 0.00 87.3 27.4 1,014.5 0.2 SSE | 147 1.4 SSE | 150 266 -57 0.0 11.6 67.8 3.8 0.00
8/7/22 - 2340 75.9 75.3 45 52.6 0.00 87.0 27.4 1,014.6 0.0 N | 0 0.0 S | 170 265 -56 0.0 11.6 68.1 3.8 0.00
8/7/22 - 2330 76.4 75.8 44 52.7 0.00 87.1 27.4 1,014.5 0.0 SSE | 157 0.6 SSE | 160 265 -56 0.0 11.6 68.5 3.8 0.00
8/7/22 - 2320 76.6 76.2 43 52.4 0.00 87.1 27.4 1,014.5 0.0 SSE | 156 0.4 SSE | 158 265 -55 0.0 11.6 68.8 3.8 0.00
8/7/22 - 2310 76.7 76.4 42 52.1 0.00 87.0 27.4 1,014.4 0.1 S | 186 0.7 S | 175 265 -55 0.0 11.6 69.0 3.8 0.00
8/7/22 - 2300 77.2 76.7 41 51.6 0.00 86.9 27.4 1,014.4 0.1 S | 172 0.5 S | 170 264 -56 0.0 11.6 69.0 3.8 0.00
8/7/22 - 2250 77.2 76.8 41 51.5 0.00 87.0 27.4 1,014.4 0.0 S | 190 0.4 SSW | 196 264 -57 0.0 11.6 69.5 3.8 0.00
8/7/22 - 2240 77.5 76.8 40 51.3 0.00 86.9 27.4 1,014.2 0.0 N | 0 0.0 SSE | 166 264 -58 0.0 11.6 70.2 3.8 0.00
8/7/22 - 2230 78.1 77.3 39 51.1 0.00 86.9 27.4 1,014.1 0.2 S | 180 0.9 S | 175 264 -60 0.0 11.6 70.9 3.8 0.00
8/7/22 - 2220 79.5 78.0 38 51.0 0.00 87.0 27.4 1,014.1 0.3 SSW | 205 1.2 SSW | 208 264 -61 0.0 11.6 72.0 3.8 0.00
8/7/22 - 2210 79.7 79.3 38 51.4 0.00 86.9 27.4 1,014.1 0.4 ESE | 116 1.4 SE | 126 264 -65 0.0 11.6 73.0 3.8 0.00
8/7/22 - 2200 79.8 79.4 38 51.6 0.00 86.8 27.4 1,014.1 1.0 ESE | 116 2.7 ENE | 67 264 -67 0.0 11.6 73.6 3.8 0.00
8/7/22 - 2150 80.2 79.7 38 52.0 0.00 87.0 27.4 1,014.0 0.6 ESE | 121 1.8 ESE | 112 264 -69 0.1 11.6 74.2 3.8 0.00
8/7/22 - 2140 80.5 79.8 38 52.2 0.00 86.9 27.4 1,014.0 1.0 ESE | 119 2.4 ESE | 120 264 -69 0.0 11.6 74.9 3.8 0.00
8/7/22 - 2130 81.0 80.4 37 52.2 0.00 86.7 27.4 1,013.9 1.1 ESE | 106 3.7 NE | 50 264 -70 0.0 11.6 75.6 3.8 0.00
8/7/22 - 2120 81.5 80.9 36 52.2 0.00 86.9 27.4 1,013.8 0.8 E | 84 2.8 ENE | 72 264 -71 0.2 11.6 75.6 3.8 0.00
8/7/22 - 2110 81.8 81.3 36 52.0 0.00 86.8 27.4 1,013.7 0.3 NE | 52 1.5 NE | 42 264 -71 0.0 11.5 76.1 3.8 0.00
8/7/22 - 2100 82.3 81.7 36 52.2 0.00 86.8 27.4 1,013.6 0.2 E | 95 1.6 ESE | 118 264 -73 0.0 11.5 77.5 3.8 0.00
8/7/22 - 2050 83.0 82.2 35 51.9 0.00 86.6 27.4 1,013.5 0.6 E | 86 2.8 ENE | 59 264 -75 0.1 11.5 78.5 3.8 0.00
8/7/22 - 2040 83.9 82.8 33 51.3 0.00 86.7 27.4 1,013.4 1.4 ESE | 102 4.3 E | 80 264 -77 0.2 11.5 79.6 3.8 0.00
8/7/22 - 2030 84.8 83.9 30 49.6 0.00 86.7 27.4 1,013.4 1.1 ENE | 78 3.0 E | 92 263 -78 0.1 11.5 80.2 3.8 0.00
8/7/22 - 2020 85.8 84.7 26 46.8 0.00 86.7 27.4 1,013.3 1.0 E | 81 2.7 E | 94 263 -80 0.1 11.5 80.9 3.8 0.00
8/7/22 - 2010 86.9 85.8 23 44.0 0.00 86.7 27.4 1,013.2 0.8 ESE | 102 2.0 ESE | 114 262 -80 0.1 11.4 82.2 3.8 0.00
8/7/22 - 2000 88.1 86.7 22 44.0 0.00 86.8 27.3 1,013.0 0.5 E | 99 2.3 ENE | 74 262 -80 0.0 11.4 84.0 3.8 0.00
8/7/22 - 1950 89.7 88.0 21 44.4 0.00 86.7 27.4 1,012.9 0.5 NE | 55 1.4 NNE | 27 262 -79 0.0 11.4 86.4 3.8 0.00
8/7/22 - 1940 92.0 89.6 20 44.6 0.00 86.6 27.3 1,012.8 1.1 NE | 55 2.9 NE | 56 262 -77 0.1 11.4 88.8 3.8 0.00
8/7/22 - 1930 93.1 91.8 19 44.0 0.00 86.6 27.3 1,012.6 0.6 N | 352 3.8 N | 353 262 -71 0.3 11.4 91.0 3.8 0.00
8/7/22 - 1920 94.3 93.1 19 45.0 0.00 86.7 27.3 1,012.5 0.3 NW | 317 2.6 NW | 320 261 -48 0.7 11.4 92.9 3.8 0.00
8/7/22 - 1910 94.9 94.3 18 43.9 0.00 86.6 27.3 1,012.3 1.1 WNW | 294 3.8 SW | 235 261 -30 0.8 11.2 94.0 3.8 0.00
8/7/22 - 1900 95.5 94.6 16 41.3 0.00 86.6 27.3 1,012.3 3.7 WSW | 247 7.5 WSW | 242 261 -13 2.2 11.1 95.0 3.8 0.00
8/7/22 - 1850 96.4 95.4 15 40.8 0.00 86.6 27.3 1,012.1 3.9 WSW | 250 7.4 SW | 219 261 8 2.2 10.7 96.3 3.8 0.00
8/7/22 - 1840 96.8 96.1 15 40.8 0.00 86.5 27.3 1,012.0 3.7 WSW | 246 6.5 WSW | 243 261 32 2.3 10.4 97.3 3.8 0.00
8/7/22 - 1830 97.1 96.3 14 40.5 0.00 86.6 27.2 1,011.9 4.9 WSW | 241 7.8 W | 259 261 56 2.9 10.0 98.5 3.8 0.00
8/7/22 - 1820 99.3 97.1 14 40.6 0.00 86.4 27.3 1,011.8 5.7 WSW | 239 9.2 WSW | 254 261 80 3.2 9.5 99.8 3.8 0.00
8/7/22 - 1810 100.1 99.2 13 40.6 0.00 86.2 27.2 1,011.9 4.0 WSW | 254 7.1 W | 264 261 102 2.7 9.0 101.1 3.8 0.00
8/7/22 - 1800 101.6 99.9 13 40.2 0.00 86.3 27.2 1,011.9 2.9 W | 271 6.6 W | 264 261 127 2.3 8.5 101.9 3.8 0.00
8/7/22 - 1750 102.1 101.2 12 40.5 0.00 86.1 27.2 1,011.8 1.7 WNW | 287 5.4 W | 261 261 150 1.9 8.1 102.7 3.8 0.00
8/7/22 - 1740 101.8 101.2 12 40.3 0.00 86.3 27.2 1,011.9 1.5 NW | 316 5.9 NW | 308 261 178 1.8 7.8 103.8 3.8 0.00
8/7/22 - 1730 102.2 101.4 13 40.8 0.00 86.2 27.2 1,011.9 1.4 WNW | 299 6.1 WSW | 257 261 200 1.6 7.5 104.6 3.8 0.00
8/7/22 - 1720 102.6 101.4 13 42.3 0.00 86.0 27.2 1,011.9 2.0 NW | 304 7.6 WNW | 303 261 219 1.9 7.2 106.1 3.8 0.00
8/7/22 - 1710 103.0 102.3 14 43.5 0.00 86.0 27.1 1,011.9 2.0 NW | 307 5.9 WSW | 245 261 241 2.3 6.9 107.5 3.8 0.00
8/7/22 - 1700 102.8 101.1 14 43.0 0.00 86.0 27.2 1,011.9 3.9 W | 265 9.6 W | 266 261 263 2.8 6.5 109.2 3.8 0.00
8/7/22 - 1650 103.6 101.8 12 39.8 0.00 85.7 27.1 1,011.9 1.8 WNW | 282 9.0 WSW | 247 261 284 1.3 6.1 110.1 3.8 0.00
8/7/22 - 1640 102.9 101.7 9 33.5 0.00 85.7 27.1 1,012.0 4.8 SSW | 197 9.2 SSW | 202 261 309 2.8 5.9 111.0 3.8 0.00
8/7/22 - 1630 103.4 102.2 10 34.8 0.00 85.8 27.1 1,012.0 3.9 S | 179 6.6 S | 187 261 332 2.2 5.4 112.9 3.8 0.00
8/7/22 - 1620 103.4 102.3 10 35.5 0.00 85.5 27.1 1,012.1 4.8 S | 177 9.9 SW | 217 261 355 2.8 5.0 114.5 3.8 0.00
8/7/22 - 1610 103.6 102.5 10 35.1 0.00 85.5 27.1 1,012.0 4.4 SSW | 193 10.3 SSW | 195 261 376 2.8 4.6 116.3 3.8 0.00
8/7/22 - 1600 104.2 103.3 10 36.2 0.00 85.7 27.1 1,012.0 4.7 SSW | 197 9.6 SSE | 148 261 396 2.6 4.1 117.9 3.8 0.00
8/7/22 - 1550 103.9 103.1 10 35.4 0.00 85.6 27.1 1,012.1 4.1 S | 174 7.9 SSE | 164 261 414 1.9 3.7 119.3 3.8 0.00
8/7/22 - 1540 104.4 103.5 10 36.2 0.00 85.6 27.1 1,012.1 4.3 S | 172 10.4 SSW | 195 261 432 2.0 3.3 121.5 3.8 0.00
8/7/22 - 1530 104.6 103.5 10 36.8 0.00 85.6 27.1 1,012.2 3.9 SSE | 152 7.5 SSE | 149 261 448 1.4 3.0 122.7 3.8 0.00
8/7/22 - 1520 104.4 103.6 10 35.9 0.00 85.5 27.1 1,012.2 4.2 S | 172 7.8 SE | 136 261 466 1.5 2.8 124.4 3.8 0.00
8/7/22 - 1510 104.8 103.7 9 35.5 0.00 85.6 27.1 1,012.3 3.1 SE | 133 9.5 SE | 128 261 480 0.6 2.5 125.1 3.8 0.00
8/7/22 - 1500 104.4 103.5 9 35.0 0.00 84.7 27.0 1,012.3 4.0 SSE | 147 8.9 ESE | 104 260 498 1.0 2.4 126.1 3.8 0.00
8/7/22 - 1450 103.7 103.0 10 35.6 0.00 84.5 27.0 1,012.3 4.3 SSW | 194 8.0 S | 180 261 510 1.4 2.3 126.9 3.8 0.00
8/7/22 - 1440 104.1 103.0 10 36.3 0.00 84.6 27.0 1,012.4 3.4 SSW | 192 6.0 SSW | 206 261 519 0.6 2.0 127.7 3.8 0.00
8/7/22 - 1430 104.9 103.8 10 38.0 0.00 84.6 27.0 1,012.6 3.4 SE | 140 6.9 S | 175 261 531 0.3 1.9 127.9 3.8 0.00
8/7/22 - 1420 103.8 102.2 11 39.0 0.00 84.6 27.0 1,012.7 2.2 E | 98 6.9 E | 88 261 542 0.1 1.9 130.1 3.8 0.00
8/7/22 - 1410 104.2 102.4 12 39.6 0.00 84.5 27.0 1,012.8 2.8 SE | 136 5.9 SSE | 149 261 549 0.5 1.9 136.5 3.8 0.00
8/7/22 - 1400 105.2 103.5 12 41.5 0.00 84.5 27.0 1,012.9 1.3 ESE | 114 4.8 SE | 140 261 555 0.1 1.8 138.7 3.8 0.00
8/7/22 - 1350 103.6 102.5 13 42.6 0.00 84.5 27.0 1,013.1 1.2 W | 264 3.5 WSW | 256 261 560 0.0 1.8 138.6 3.8 0.00
8/7/22 - 1340 103.5 102.6 13 43.6 0.00 84.5 26.9 1,013.1 1.3 NW | 321 3.4 SW | 219 261 564 0.1 1.8 140.0 3.8 0.00
8/7/22 - 1330 103.9 103.0 14 44.6 0.00 84.5 26.9 1,013.2 1.5 NNE | 29 3.8 NNE | 28 261 567 0.0 1.8 141.6 3.8 0.00
8/7/22 - 1320 103.8 103.0 14 45.2 0.00 84.3 26.9 1,013.2 1.1 N | 8 4.9 NNW | 347 261 572 0.1 1.8 143.3 3.8 0.00
8/7/22 - 1310 103.4 102.1 15 45.6 0.00 84.5 26.9 1,013.3 1.1 NNE | 18 4.9 NNE | 14 261 578 0.1 1.7 143.3 3.8 0.00
8/7/22 - 1300 103.4 102.4 15 46.3 0.00 84.3 26.9 1,013.4 0.7 NNW | 346 4.7 N | 8 261 581 0.2 1.7 145.3 3.8 0.00
8/7/22 - 1250 102.3 100.6 16 46.5 0.00 84.4 26.9 1,013.4 1.1 N | 352 3.8 NNW | 328 261 583 0.5 1.7 144.5 3.8 0.00
8/7/22 - 1240 101.5 99.0 16 46.9 0.00 84.3 26.9 1,013.5 1.9 NE | 37 4.4 E | 95 261 580 0.2 1.6 145.1 3.8 0.00
8/7/22 - 1230 99.3 98.0 17 46.4 0.00 84.2 26.9 1,013.5 1.5 SSE | 159 3.7 NNE | 18 261 581 0.8 1.6 141.4 3.8 0.00
8/7/22 - 1220 99.4 98.2 17 46.4 0.00 84.3 26.9 1,013.6 1.1 SSE | 156 3.2 ENE | 63 261 577 0.4 1.5 142.3 3.8 0.00
8/7/22 - 1210 98.4 97.0 17 46.4 0.00 84.3 26.9 1,013.7 1.6 ENE | 77 3.3 NNE | 19 261 569 0.3 1.4 138.6 3.8 0.00
8/7/22 - 1200 99.0 97.9 18 47.1 0.00 84.3 26.9 1,013.8 1.7 NNE | 31 4.9 NE | 41 261 560 0.2 1.3 137.9 3.8 0.00
8/7/22 - 1150 98.7 96.1 19 49.3 0.00 84.4 26.9 1,013.8 0.7 N | 3 3.6 WNW | 286 261 554 0.3 1.3 135.9 3.8 0.00
8/7/22 - 1140 96.4 95.3 19 46.9 0.00 84.4 26.9 1,013.9 1.6 NNE | 16 3.9 NNW | 336 261 549 0.4 1.2 131.3 3.8 0.00
8/7/22 - 1130 96.6 95.2 20 48.2 0.00 84.3 26.9 1,014.0 1.7 NE | 39 4.0 NE | 48 261 540 0.5 1.2 133.6 3.8 0.00
8/7/22 - 1120 95.2 93.2 21 48.6 0.00 84.4 26.9 1,014.0 1.6 NE | 43 3.6 ENE | 63 261 533 0.4 1.1 132.1 3.8 0.00
8/7/22 - 1110 93.7 92.8 22 49.3 0.00 84.4 26.9 1,014.1 2.1 ENE | 76 5.3 E | 90 262 524 0.9 1.0 131.2 3.8 0.00
8/7/22 - 1100 92.8 91.7 24 50.4 0.00 84.5 27.0 1,014.3 2.3 ENE | 66 4.9 ENE | 71 262 509 0.9 0.9 130.6 3.8 0.00
8/7/22 - 1050 91.7 90.8 27 52.9 0.00 84.5 26.9 1,014.3 2.5 NE | 49 4.4 N | 10 262 494 0.7 0.7 131.3 3.8 0.00
8/7/22 - 1040 91.2 90.8 27 52.5 0.00 84.6 26.9 1,014.4 2.4 NNE | 26 4.7 NNE | 20 262 479 0.4 0.6 130.3 3.8 0.00
8/7/22 - 1030 91.3 90.0 27 52.1 0.00 84.5 26.9 1,014.4 2.1 E | 89 5.4 SE | 145 262 466 0.8 0.5 129.6 3.8 0.00
8/7/22 - 1020 90.0 88.2 28 51.4 0.00 84.5 27.0 1,014.4 2.1 ENE | 58 3.7 E | 98 262 448 0.4 0.4 128.4 3.8 0.00
8/7/22 - 1010 88.4 87.4 27 49.6 0.00 84.6 27.0 1,014.4 1.6 NE | 43 3.5 ENE | 71 262 429 0.2 0.3 126.1 3.8 0.00
8/7/22 - 1000 88.5 86.9 25 48.0 0.00 84.7 27.0 1,014.3 1.3 NE | 44 3.0 NE | 56 262 412 0.2 0.3 124.8 3.8 0.00
8/7/22 - 0950 87.0 85.7 26 47.4 0.00 84.8 27.0 1,014.4 1.1 ENE | 68 3.1 NW | 325 262 392 0.3 0.3 122.3 3.8 0.00
8/7/22 - 0940 86.0 85.3 27 48.2 0.00 84.8 27.0 1,014.4 1.4 NE | 50 3.1 ENE | 57 262 372 0.2 0.2 119.9 3.8 0.00
8/7/22 - 0930 85.7 83.7 30 50.3 0.00 85.2 27.1 1,014.4 0.7 NNE | 21 2.4 NE | 47 262 354 0.3 0.2 117.4 3.8 0.00
8/7/22 - 0920 83.7 80.9 33 50.7 0.00 85.6 27.1 1,014.3 0.2 NW | 306 2.3 WNW | 283 263 336 0.2 0.1 112.6 3.8 0.00
8/7/22 - 0910 80.9 79.2 35 50.3 0.00 85.8 27.1 1,014.4 0.9 NNE | 27 2.6 NNE | 14 264 316 0.3 0.1 106.6 3.8 0.00
8/7/22 - 0900 79.3 76.3 38 49.9 0.00 85.7 27.1 1,014.5 0.6 NE | 36 1.6 NE | 47 264 298 0.1 0.1 98.7 3.8 0.00
8/7/22 - 0850 76.3 74.7 43 51.6 0.00 85.9 27.1 1,014.5 0.6 NNE | 20 1.8 N | 353 264 275 0.0 0.0 87.2 3.8 0.00
8/7/22 - 0840 74.7 73.5 47 52.7 0.00 86.0 27.2 1,014.6 0.3 NE | 37 2.0 NNE | 12 266 178 0.0 0.0 72.7 3.8 0.00
8/7/22 - 0830 73.6 72.4 50 53.4 0.00 86.1 27.2 1,014.6 0.1 ENE | 67 0.8 ENE | 63 267 -15 0.0 0.0 67.2 3.8 0.00
8/7/22 - 0820 72.4 71.3 52 53.2 0.00 86.2 27.2 1,014.5 0.3 SW | 223 1.2 SW | 235 267 -15 0.1 0.0 66.4 3.8 0.00
8/7/22 - 0810 71.4 70.6 53 53.1 0.00 86.4 27.2 1,014.5 0.1 E | 85 1.4 ENE | 70 267 -15 0.0 0.0 66.1 3.8 0.00
8/7/22 - 0800 70.7 68.7 55 52.8 0.00 86.6 27.2 1,014.4 0.2 NE | 40 1.4 NNE | 12 267 5 0.0 0.0 64.8 3.8 0.00
8/7/22 - 0750 68.7 67.4 57 52.3 0.00 86.7 27.2 1,014.3 0.2 NE | 38 1.4 ENE | 76 267 -14 0.1 0.0 62.4 3.8 0.00
8/7/22 - 0740 67.4 66.2 59 52.1 0.00 86.8 27.2 1,014.3 0.2 NNE | 23 1.3 NNE | 22 268 -30 0.0 0.0 60.6 3.8 0.00
8/7/22 - 0730 66.4 65.0 61 51.9 0.00 86.9 27.2 1,014.2 0.0 E | 82 0.5 E | 82 268 -36 0.0 0.0 59.1 3.8 0.00
8/7/22 - 0720 65.1 63.6 64 51.7 0.00 86.9 27.3 1,014.2 0.0 N | 0 0.0 E | 97 268 -36 0.0 0.0 57.8 3.8 0.00
8/7/22 - 0710 63.8 62.4 66 51.6 0.00 87.1 27.3 1,014.2 0.0 N | 0 0.0 SE | 146 269 -32 0.0 0.0 56.5 3.8 0.00
8/7/22 - 0700 62.3 61.3 69 51.4 0.00 87.1 27.3 1,014.1 0.0 SSE | 151 0.8 SSE | 148 269 -38 0.0 0.0 55.5 3.8 0.00
8/7/22 - 0650 61.7 61.2 69 51.0 0.00 87.3 27.3 1,014.0 0.2 SE | 141 1.0 SE | 140 269 -42 0.0 0.0 54.6 3.8 0.00
8/7/22 - 0640 61.6 60.9 69 51.2 0.00 87.4 27.3 1,013.8 0.2 SE | 145 1.1 SE | 141 269 -41 0.0 0.0 53.9 3.8 0.00
8/7/22 - 0630 61.0 60.3 69 50.5 0.00 87.3 27.3 1,013.7 0.0 N | 0 0.0 SSE | 163 269 -46 0.0 0.0 53.6 3.8 0.00
8/7/22 - 0620 61.1 60.6 67 49.9 0.00 87.3 27.3 1,013.6 0.1 SE | 139 0.7 SE | 138 269 -50 0.0 0.0 53.4 3.8 0.00
8/7/22 - 0610 61.3 60.9 67 50.2 0.00 87.3 27.3 1,013.4 0.8 SSW | 195 1.4 SSW | 207 269 -51 0.0 0.0 53.3 3.8 0.00
8/7/22 - 0600 61.5 61.0 69 50.8 0.00 87.2 27.3 1,013.3 0.0 S | 177 0.1 S | 177 269 -53 0.0 0.0 53.5 3.8 0.00
8/7/22 - 0550 62.0 61.3 67 50.6 0.00 87.3 27.3 1,013.2 0.0 N | 0 0.0 SSE | 157 269 -54 0.0 0.0 53.7 3.8 0.00
8/7/22 - 0540 61.9 61.3 67 50.6 0.00 87.1 27.3 1,013.2 0.6 S | 186 1.4 SSW | 192 269 -53 0.0 0.0 53.6 3.8 0.00
8/7/22 - 0530 61.7 61.3 67 50.6 0.00 87.1 27.3 1,013.2 0.2 SSW | 200 0.8 SSW | 198 269 -53 0.0 0.0 53.8 3.8 0.00
8/7/22 - 0520 62.4 61.4 66 50.4 0.00 87.1 27.3 1,013.2 0.0 SSW | 196 0.0 SSW | 196 268 -53 0.0 0.0 54.0 3.8 0.00
8/7/22 - 0510 62.7 62.2 64 50.4 0.00 87.3 27.3 1,013.2 0.1 SSE | 157 0.7 S | 169 269 -53 0.0 0.0 54.1 3.8 0.00
8/7/22 - 0500 62.7 62.3 63 49.9 0.00 87.3 27.3 1,013.2 0.1 SSE | 148 0.9 SSE | 148 268 -53 0.0 0.0 54.1 3.8 0.00
8/7/22 - 0450 62.4 62.1 65 50.2 0.00 87.4 27.3 1,013.3 0.2 SSW | 201 0.8 SSW | 194 269 -52 0.0 0.0 54.2 3.8 0.00
8/7/22 - 0440 62.4 61.4 66 50.4 0.00 87.2 27.4 1,013.3 0.2 SSE | 152 0.9 SSE | 155 268 -53 0.0 0.0 54.2 3.8 0.00
8/7/22 - 0430 62.1 61.2 66 50.0 0.00 87.3 27.3 1,013.4 0.4 SSE | 163 1.0 S | 170 268 -56 0.0 0.0 54.0 3.8 0.00
8/7/22 - 0420 62.4 61.8 65 50.3 0.00 87.3 27.3 1,013.4 0.2 SSE | 150 1.1 SE | 139 268 -56 0.0 0.0 53.8 3.8 0.00
8/7/22 - 0410 62.6 62.3 64 50.0 0.00 87.1 27.3 1,013.4 0.2 SSE | 164 1.0 SSE | 162 268 -56 0.0 0.0 53.7 3.8 0.00
8/7/22 - 0400 62.4 62.1 64 50.0 0.00 87.2 27.4 1,013.4 0.2 S | 186 1.3 S | 184 268 -56 0.0 0.0 53.8 3.8 0.00
8/7/22 - 0350 62.6 62.2 65 50.3 0.00 87.1 27.4 1,013.4 0.1 SE | 144 0.8 SE | 145 268 -57 0.0 0.0 54.0 3.8 0.00
8/7/22 - 0340 62.6 62.3 65 50.6 0.00 87.2 27.3 1,013.4 0.2 SSW | 202 1.1 SSW | 210 268 -57 0.0 0.0 54.2 3.8 0.00
8/7/22 - 0330 62.6 62.2 65 50.3 0.00 87.2 27.4 1,013.4 0.1 SSE | 154 0.9 SSE | 157 268 -59 0.0 0.0 54.3 3.8 0.00
8/7/22 - 0320 63.0 62.6 64 50.5 0.00 87.2 27.4 1,013.4 0.6 SSE | 148 1.3 SE | 146 268 -59 0.0 0.0 54.5 3.8 0.00
8/7/22 - 0310 63.5 62.9 63 50.2 0.00 87.2 27.4 1,013.6 0.3 SE | 142 1.2 SE | 138 268 -60 0.0 0.0 54.6 3.8 0.00
8/7/22 - 0300 63.5 63.0 61 49.6 0.00 87.2 27.4 1,013.7 1.1 SSW | 194 2.6 SW | 222 268 -59 0.0 0.0 54.5 3.8 0.00
8/7/22 - 0250 64.6 63.2 60 49.8 0.00 87.3 27.4 1,013.7 0.4 SSE | 161 1.0 SE | 144 268 -61 0.0 0.0 54.4 3.8 0.00
8/7/22 - 0240 64.5 64.1 60 50.3 0.00 87.3 27.4 1,013.7 0.1 SSE | 159 0.5 SSE | 160 268 -60 0.0 0.0 54.6 3.8 0.00
8/7/22 - 0230 64.6 64.1 60 50.0 0.00 87.4 27.4 1,013.7 0.3 S | 169 1.1 SSW | 198 268 -61 0.0 0.0 54.7 3.8 0.00
8/7/22 - 0220 64.7 64.4 59 50.0 0.00 87.4 27.4 1,013.8 0.1 SSE | 168 0.6 S | 175 268 -61 0.0 0.0 54.9 3.8 0.00
8/7/22 - 0210 64.5 64.2 60 50.1 0.00 87.3 27.4 1,013.8 0.1 S | 181 0.6 SSE | 154 267 -61 0.0 0.0 55.2 3.8 0.00
8/7/22 - 0200 65.1 64.1 58 49.3 0.00 87.3 27.4 1,013.8 0.5 SSE | 151 1.4 SE | 140 267 -62 0.0 0.0 55.4 3.8 0.00
8/7/22 - 0150 65.6 65.0 58 50.3 0.00 87.4 27.4 1,013.7 0.2 S | 170 0.9 SSW | 194 267 -61 0.0 0.0 55.7 3.8 0.00
8/7/22 - 0140 66.0 65.4 57 50.2 0.00 87.5 27.4 1,013.7 0.2 SSE | 149 0.9 SE | 141 267 -62 0.0 0.0 56.0 3.8 0.00
8/7/22 - 0130 65.9 65.2 58 50.2 0.00 87.4 27.4 1,013.7 0.3 SSE | 149 0.9 SE | 145 267 -63 0.0 0.0 56.4 3.8 0.00
8/7/22 - 0120 65.2 64.8 58 50.1 0.00 87.4 27.4 1,013.7 0.3 SSE | 164 1.0 S | 177 267 -63 0.0 0.0 56.6 3.8 0.00
8/7/22 - 0110 66.3 65.1 57 50.0 0.00 87.5 27.4 1,013.6 0.2 S | 178 0.8 S | 187 267 -65 0.0 0.0 56.8 3.8 0.00
8/7/22 - 0100 67.2 66.3 55 50.3 0.00 87.5 27.4 1,013.5 0.3 S | 171 1.2 S | 178 267 -65 0.0 27.6 57.2 3.8 0.00
8/7/22 - 0050 67.0 66.1 56 50.3 0.00 87.4 27.4 1,013.4 0.1 SSE | 166 0.8 SSE | 154 267 -65 0.0 27.6 57.7 3.8 0.00
8/7/22 - 0040 66.6 66.2 55 49.5 0.00 87.5 27.4 1,013.3 0.1 SE | 142 0.7 SE | 137 267 -66 0.0 27.6 58.1 3.8 0.00
8/7/22 - 0030 67.9 66.5 52 48.9 0.00 87.5 27.4 1,013.3 1.0 S | 178 1.6 SSW | 198 266 -65 0.1 27.6 58.4 3.8 0.00
8/7/22 - 0020 68.2 67.5 50 48.7 0.00 87.5 27.4 1,013.3 1.5 SW | 226 1.9 WSW | 241 266 -66 0.0 27.6 58.7 3.8 0.00
8/7/22 - 0010 68.0 67.4 51 49.1 0.00 87.5 27.4 1,013.3 0.7 S | 186 1.7 SSW | 203 266 -67 0.0 27.6 59.1 3.8 0.00
8/7/22 - 0000 68.2 67.7 51 49.3 0.00 87.6 27.4 1,013.3 0.1 SE | 143 0.8 SE | 138 266 -69 0.0 27.6 59.2 3.8 0.00
8/6/22 - 2350 68.4 67.7 52 49.8 0.00 87.6 27.4 1,013.3 0.1 SSE | 153 1.1 SE | 145 266 -67 0.0 27.6 59.4 3.8 0.00
8/6/22 - 2340 68.8 68.2 51 49.7 0.00 87.6 27.4 1,013.3 0.0 SSW | 204 0.7 SSW | 204 266 -67 0.0 27.6 60.0 3.8 0.00
8/6/22 - 2330 69.4 68.6 50 49.8 0.00 87.5 27.4 1,013.3 0.3 SSE | 151 1.2 SE | 135 266 -68 0.0 27.6 60.5 3.8 0.00
8/6/22 - 2320 69.1 68.8 51 50.0 0.00 87.6 27.4 1,013.3 0.2 S | 185 1.5 SSW | 200 266 -69 0.0 27.6 61.1 3.8 0.00
8/6/22 - 2310 70.2 69.1 50 50.0 0.00 87.4 27.4 1,013.2 0.2 SE | 140 1.2 SE | 135 266 -70 0.0 27.6 62.0 3.8 0.00
8/6/22 - 2300 70.5 69.7 50 50.5 0.00 87.4 27.4 1,013.2 0.1 NE | 37 1.1 NE | 36 266 -72 0.0 27.6 62.8 3.8 0.00
8/6/22 - 2250 72.0 70.4 48 50.6 0.00 87.3 27.4 1,013.2 0.3 ENE | 67 1.8 SSW | 206 266 -72 0.0 27.6 64.2 3.8 0.00
8/6/22 - 2240 72.9 71.8 47 50.9 0.00 87.3 27.4 1,013.2 0.1 N | 359 0.9 WSW | 241 266 -76 0.0 27.6 65.8 3.8 0.00
8/6/22 - 2230 73.4 72.9 46 51.2 0.00 87.1 27.4 1,013.2 0.5 WSW | 237 2.8 WSW | 252 266 -79 0.2 27.6 67.1 3.8 0.00
8/6/22 - 2220 73.7 73.2 46 51.5 0.00 87.1 27.4 1,013.3 0.7 SSE | 167 2.5 SW | 220 266 -81 0.2 27.6 67.9 3.8 0.00
8/6/22 - 2210 74.2 73.5 46 51.8 0.00 86.9 27.4 1,013.3 1.3 SSW | 198 3.4 W | 268 266 -82 0.3 27.6 68.9 3.8 0.00
8/6/22 - 2200 74.5 74.0 46 52.0 0.00 87.0 27.4 1,013.4 2.9 SSW | 211 5.5 SW | 236 266 -83 1.3 27.5 69.5 3.8 0.00
8/6/22 - 2150 74.8 74.4 45 51.9 0.00 86.9 27.4 1,013.3 2.6 SW | 219 4.8 SW | 234 266 -83 1.2 27.3 69.8 3.8 0.00
8/6/22 - 2140 75.4 74.6 45 52.1 0.00 86.8 27.4 1,013.3 3.2 SSW | 212 5.3 SSW | 208 266 -84 1.6 27.1 70.1 3.8 0.00
8/6/22 - 2130 76.0 75.1 44 52.3 0.00 86.9 27.4 1,013.2 3.1 SSW | 201 6.3 SSW | 212 266 -84 1.4 26.8 70.5 3.8 0.00
8/6/22 - 2120 76.3 75.9 44 52.3 0.00 86.8 27.4 1,013.1 3.1 SW | 223 5.0 WSW | 251 265 -84 1.4 26.6 71.0 3.8 0.00
8/6/22 - 2110 76.8 76.2 43 52.3 0.00 86.7 27.4 1,013.0 2.3 SSW | 211 4.4 SW | 215 265 -85 1.1 26.4 71.7 3.8 0.00
8/6/22 - 2100 77.4 76.7 42 52.2 0.00 86.7 27.4 1,013.0 3.1 SW | 220 4.7 SW | 231 264 -87 1.4 26.2 72.4 3.8 0.00
8/6/22 - 2050 77.9 77.4 41 52.1 0.00 86.8 27.4 1,012.9 3.2 WSW | 240 6.0 SSW | 210 264 -88 1.5 25.9 72.8 3.8 0.00
8/6/22 - 2040 78.5 77.8 40 51.7 0.00 86.6 27.4 1,012.8 3.2 SSW | 211 4.9 SW | 223 264 -89 1.6 25.7 73.6 3.8 0.00
8/6/22 - 2030 79.4 78.4 38 51.3 0.00 86.5 27.4 1,012.6 3.2 SW | 230 5.4 S | 176 264 -91 1.6 25.4 74.7 3.8 0.00
8/6/22 - 2020 80.2 79.3 36 50.6 0.00 86.4 27.4 1,012.5 3.3 SW | 228 6.4 SSW | 212 264 -92 1.7 25.2 75.6 3.8 0.00
8/6/22 - 2010 81.0 80.1 34 49.4 0.00 86.5 27.4 1,012.4 4.1 WSW | 240 7.8 SW | 217 264 -93 2.1 24.9 76.5 3.8 0.00
8/6/22 - 2000 81.8 80.9 31 47.8 0.00 86.4 27.4 1,012.4 3.9 WSW | 244 6.9 WSW | 250 264 -92 2.1 24.5 77.2 3.8 0.00
8/6/22 - 1950 82.4 81.5 28 45.5 0.00 86.5 27.4 1,012.3 4.0 SW | 219 7.6 WSW | 241 263 -91 2.2 24.2 78.4 3.8 0.00
8/6/22 - 1940 83.1 82.3 26 43.8 0.00 86.5 27.4 1,012.2 3.5 SW | 218 6.7 SW | 223 263 -88 1.8 23.8 79.9 3.8 0.00
8/6/22 - 1930 84.2 83.0 25 43.7 0.00 86.6 27.4 1,012.1 4.9 SSW | 211 7.7 SW | 220 263 -85 2.6 23.5 82.2 3.8 0.00
8/6/22 - 1920 84.6 84.0 24 43.9 0.00 87.4 27.4 1,012.0 4.3 SW | 233 8.8 WSW | 253 263 -57 2.2 23.1 84.8 3.8 0.00
8/6/22 - 1910 85.8 84.6 23 43.4 0.00 87.5 27.4 1,011.8 5.4 SW | 224 8.9 W | 281 263 -39 3.1 22.7 86.5 3.8 0.00
8/6/22 - 1900 87.7 85.6 20 41.2 0.00 87.4 27.4 1,011.8 5.7 SW | 229 9.5 WSW | 247 262 -19 3.3 22.2 88.4 3.8 0.00
8/6/22 - 1850 88.9 87.5 18 39.8 0.00 87.2 27.4 1,011.7 5.2 SW | 230 11.6 SSW | 196 262 5 3.0 21.6 90.3 3.8 0.00
8/6/22 - 1840 90.8 88.8 18 41.0 0.00 87.2 27.4 1,011.7 5.3 WSW | 240 8.9 W | 271 262 29 3.3 21.1 91.9 3.8 0.00
8/6/22 - 1830 92.2 90.6 18 41.5 0.00 87.3 27.4 1,011.6 3.7 WSW | 243 7.3 W | 262 262 53 2.5 20.6 93.4 3.8 0.00
8/6/22 - 1820 93.8 92.0 18 43.6 0.00 87.2 27.3 1,011.5 4.1 W | 263 9.9 W | 268 262 78 2.7 20.2 94.5 3.8 0.00
8/6/22 - 1810 94.4 93.6 19 45.1 0.00 87.1 27.3 1,011.4 2.3 WNW | 284 7.6 W | 261 262 102 2.3 19.7 95.7 3.8 0.00
8/6/22 - 1800 95.2 94.2 18 44.9 0.00 87.0 27.4 1,011.3 1.9 WNW | 301 7.1 WNW | 288 262 127 2.0 19.3 96.6 3.8 0.00
8/6/22 - 1750 96.6 95.0 17 44.8 0.00 86.6 27.3 1,011.3 2.3 WNW | 285 6.1 NW | 304 262 152 2.2 19.0 98.3 3.8 0.00
8/6/22 - 1740 96.8 96.1 17 45.0 0.00 86.6 27.3 1,011.3 2.0 NW | 308 7.5 WNW | 284 262 176 2.2 18.6 100.0 3.8 0.00
8/6/22 - 1730 97.6 96.3 17 45.1 0.00 86.5 27.3 1,011.3 1.9 NW | 307 4.7 WNW | 298 262 201 1.9 18.3 101.3 3.8 0.00
8/6/22 - 1720 97.9 96.3 16 44.0 0.00 86.6 27.3 1,011.4 2.0 WNW | 292 7.0 WSW | 253 261 224 2.2 18.0 102.4 3.8 0.00
8/6/22 - 1710 96.9 96.1 15 42.0 0.00 86.7 27.3 1,011.4 5.4 W | 263 9.1 WSW | 247 261 251 3.7 17.6 103.5 3.8 0.00
8/6/22 - 1700 96.8 95.8 15 42.0 0.00 86.4 27.2 1,011.5 4.8 W | 271 9.2 W | 277 261 274 3.8 17.0 104.5 3.8 0.00
8/6/22 - 1650 98.4 96.7 13 38.4 0.00 86.3 27.2 1,011.7 5.3 WSW | 256 10.1 W | 278 261 296 3.3 16.3 105.9 3.8 0.00
8/6/22 - 1640 98.2 96.9 13 38.5 0.00 86.3 27.2 1,011.8 4.4 WSW | 252 9.0 SSW | 206 261 321 2.9 15.8 106.7 3.8 0.00
8/6/22 - 1630 98.7 97.2 13 38.7 0.00 86.2 27.2 1,011.8 5.1 WSW | 246 9.9 WSW | 238 261 344 3.3 15.3 107.6 3.8 0.00
8/6/22 - 1620 98.2 97.3 13 37.6 0.00 86.3 27.2 1,011.9 6.0 WSW | 240 10.7 SW | 235 262 369 3.7 14.8 108.4 3.8 0.00
8/6/22 - 1610 98.7 96.9 13 38.0 0.00 86.2 27.2 1,012.0 6.8 WSW | 238 12.0 SW | 221 261 392 4.1 14.1 109.2 3.8 0.00
8/6/22 - 1600 98.5 97.5 13 38.7 0.00 86.1 27.2 1,012.0 7.2 WSW | 237 10.9 WSW | 239 262 414 4.5 13.4 110.2 3.8 0.00
8/6/22 - 1550 98.2 97.4 13 39.4 0.00 85.9 27.2 1,012.1 7.8 WSW | 237 12.8 SW | 235 261 434 4.7 12.7 111.6 3.8 0.00
8/6/22 - 1540 99.3 98.2 13 39.2 0.00 85.9 27.2 1,012.1 7.8 WSW | 248 12.0 SW | 232 261 451 4.8 11.9 112.2 3.8 0.00
8/6/22 - 1530 99.2 98.1 13 39.2 0.00 86.0 27.1 1,012.2 7.4 W | 260 15.1 WSW | 250 261 466 5.0 11.1 114.4 3.8 0.00
8/6/22 - 1520 100.0 98.2 13 39.0 0.00 85.9 27.1 1,012.2 7.3 SW | 231 11.4 WSW | 254 262 483 4.1 10.3 118.5 3.8 0.00
8/6/22 - 1510 99.9 98.7 12 37.9 0.00 85.9 27.1 1,012.2 6.5 SW | 231 10.3 SSW | 206 261 496 3.7 9.6 119.2 3.8 0.00
8/6/22 - 1500 100.2 99.3 11 36.4 0.00 85.8 27.1 1,012.2 7.2 SW | 228 11.9 WSW | 253 261 510 4.2 9.0 120.7 3.8 0.00
8/6/22 - 1450 100.3 99.4 11 36.9 0.00 85.8 27.1 1,012.3 5.7 WSW | 247 10.1 W | 265 261 521 3.5 8.3 121.2 3.8 0.00
8/6/22 - 1440 100.7 99.3 11 36.5 0.00 85.6 27.1 1,012.4 5.3 WSW | 255 11.5 W | 265 261 532 3.3 7.7 121.2 3.8 0.00
8/6/22 - 1430 100.0 99.2 11 36.5 0.00 85.6 27.1 1,012.5 6.6 SW | 223 11.4 S | 189 261 547 3.6 7.1 122.4 3.8 0.00
8/6/22 - 1420 100.9 99.5 11 37.3 0.00 85.7 27.1 1,012.5 6.9 WSW | 250 12.5 W | 270 261 556 4.1 6.5 125.0 3.8 0.00
8/6/22 - 1410 101.4 99.8 11 37.7 0.00 85.6 27.1 1,012.6 6.7 WSW | 245 10.7 SW | 234 262 564 3.7 5.8 131.9 3.8 0.00
8/6/22 - 1400 101.5 100.4 13 40.0 0.00 85.6 27.1 1,012.7 5.2 WSW | 243 9.6 WSW | 257 261 569 2.7 5.2 138.2 3.8 0.00
8/6/22 - 1350 100.6 99.5 14 41.7 0.00 85.5 27.1 1,012.7 5.6 SW | 220 13.6 SW | 223 262 578 2.6 4.8 141.0 3.8 0.00
8/6/22 - 1340 101.2 99.7 16 46.2 0.00 85.3 27.1 1,012.8 4.3 SSW | 204 9.6 SW | 219 262 580 2.0 4.3 144.6 3.8 0.00
8/6/22 - 1330 101.1 98.7 22 53.8 0.00 85.3 27.0 1,012.7 0.6 NW | 312 4.5 W | 276 262 580 0.2 4.0 145.4 3.8 0.00
8/6/22 - 1320 101.1 99.0 22 54.1 0.00 85.4 27.1 1,012.9 1.6 SW | 220 4.7 WSW | 240 262 589 0.7 4.0 143.1 3.8 0.00
8/6/22 - 1310 99.5 97.1 24 55.0 0.00 85.5 27.0 1,013.0 1.2 NNE | 16 5.1 NE | 48 263 591 0.3 3.9 140.1 3.8 0.00
8/6/22 - 1300 99.2 96.5 24 54.8 0.00 85.3 27.1 1,013.1 1.7 NE | 37 5.6 NNE | 18 263 593 0.8 3.8 141.8 3.8 0.00
8/6/22 - 1250 97.3 95.5 25 54.6 0.00 85.4 27.1 1,013.3 1.8 ESE | 109 4.2 E | 90 263 595 0.9 3.7 140.0 3.8 0.00
8/6/22 - 1240 96.0 94.8